createdAt,value
2017-12-24T00:00:00.255Z,8.20
2017-12-24T00:02:27.692Z,8.20
2017-12-24T00:04:55.548Z,8.30
2017-12-24T00:07:23.403Z,8.30
2017-12-24T00:09:50.852Z,8.30
2017-12-24T00:12:18.283Z,8.30
2017-12-24T00:14:45.748Z,8.30
2017-12-24T00:17:13.191Z,8.20
2017-12-24T00:19:40.618Z,8.20
2017-12-24T00:22:08.464Z,8.20
2017-12-24T00:24:36.303Z,8.20
2017-12-24T00:27:04.153Z,8.20
2017-12-24T00:29:31.594Z,8.20
2017-12-24T00:31:59.058Z,8.20
2017-12-24T00:34:26.498Z,8.20
2017-12-24T00:36:54.080Z,8.20
2017-12-24T00:39:22.424Z,8.20
2017-12-24T00:41:50.263Z,8.20
2017-12-24T00:44:17.795Z,8.20
2017-12-24T00:46:45.251Z,8.20
2017-12-24T00:49:12.701Z,8.20
2017-12-24T00:51:40.144Z,8.20
2017-12-24T00:54:08.183Z,8.20
2017-12-24T00:56:36.038Z,8.20
2017-12-24T00:59:03.503Z,8.20
2017-12-24T01:01:31.385Z,8.20
2017-12-24T01:03:59.199Z,8.20
2017-12-24T01:06:26.649Z,8.20
2017-12-24T01:08:55.036Z,8.20
2017-12-24T01:11:22.498Z,8.20
2017-12-24T01:13:49.986Z,8.20
2017-12-24T01:16:18.779Z,8.20
2017-12-24T01:18:46.627Z,8.20
2017-12-24T01:21:15.026Z,8.20
2017-12-24T01:23:42.866Z,8.20
2017-12-24T01:26:11.169Z,8.20
2017-12-24T01:28:39.007Z,8.20
2017-12-24T01:31:06.455Z,8.20
2017-12-24T01:33:34.780Z,8.20
2017-12-24T01:36:02.215Z,8.20
2017-12-24T01:38:30.042Z,8.20
2017-12-24T01:40:57.481Z,8.20
2017-12-24T01:43:24.944Z,8.20
2017-12-24T01:45:52.394Z,8.20
2017-12-24T01:48:19.847Z,8.20
2017-12-24T01:50:48.204Z,8.20
2017-12-24T01:53:15.634Z,8.20
2017-12-24T01:55:43.506Z,8.20
2017-12-24T01:58:10.939Z,8.20
2017-12-24T02:00:39.255Z,8.10
2017-12-24T02:03:07.108Z,8.10
2017-12-24T02:05:35.855Z,8.20
2017-12-24T02:08:03.305Z,8.20
2017-12-24T02:10:30.739Z,8.20
2017-12-24T02:12:58.192Z,8.10
2017-12-24T02:15:25.627Z,8.20
2017-12-24T02:17:53.471Z,8.10
2017-12-24T02:20:20.911Z,8.10
2017-12-24T02:22:49.252Z,8.10
2017-12-24T02:25:16.690Z,8.10
2017-12-24T02:27:44.525Z,8.10
2017-12-24T02:30:12.895Z,8.10
2017-12-24T02:32:40.367Z,8.10
2017-12-24T02:35:07.812Z,8.10
2017-12-24T02:37:35.246Z,8.10
2017-12-24T02:40:02.693Z,8.10
2017-12-24T02:42:30.159Z,8.10
2017-12-24T02:44:59.556Z,8.10
2017-12-24T02:47:27.006Z,8.10
2017-12-24T02:49:54.453Z,8.10
2017-12-24T02:52:21.894Z,8.00
2017-12-24T02:54:49.738Z,8.10
2017-12-24T02:57:17.171Z,8.10
2017-12-24T02:59:44.618Z,8.00
2017-12-24T03:02:14.548Z,8.00
2017-12-24T03:04:41.995Z,8.00
2017-12-24T03:07:09.429Z,8.10
2017-12-24T03:09:36.887Z,8.10
2017-12-24T03:12:04.338Z,8.00
2017-12-24T03:14:32.208Z,8.00
2017-12-24T03:16:59.666Z,8.00
2017-12-24T03:19:27.115Z,8.00
2017-12-24T03:21:56.521Z,7.90
2017-12-24T03:24:23.946Z,7.90
2017-12-24T03:26:52.711Z,8.00
2017-12-24T03:29:20.152Z,8.00
2017-12-24T03:31:47.615Z,8.00
2017-12-24T03:34:15.050Z,8.00
2017-12-24T03:36:42.493Z,7.90
2017-12-24T03:39:09.953Z,7.90
2017-12-24T03:41:37.412Z,7.90
2017-12-24T03:44:04.860Z,7.90
2017-12-24T03:46:32.290Z,7.90
2017-12-24T03:49:00.127Z,7.90
2017-12-24T03:51:27.587Z,7.90
2017-12-24T03:53:55.031Z,7.90
2017-12-24T03:56:22.470Z,7.90
2017-12-24T03:58:49.906Z,7.90
2017-12-24T04:01:17.354Z,7.90
2017-12-24T04:03:45.211Z,8.00
2017-12-24T04:06:13.046Z,7.90
2017-12-24T04:08:40.496Z,7.90
2017-12-24T04:11:08.850Z,7.90
2017-12-24T04:13:36.296Z,7.90
2017-12-24T04:16:03.751Z,7.90
2017-12-24T04:18:31.198Z,7.80
2017-12-24T04:20:58.650Z,7.80
2017-12-24T04:23:26.497Z,7.80
2017-12-24T04:25:54.327Z,7.80
2017-12-24T04:28:21.779Z,7.80
2017-12-24T04:30:50.090Z,7.80
2017-12-24T04:33:17.958Z,7.80
2017-12-24T04:35:45.374Z,7.80
2017-12-24T04:38:12.819Z,7.80
2017-12-24T04:40:40.274Z,7.80
2017-12-24T04:43:07.731Z,7.90
2017-12-24T04:45:36.110Z,7.90
2017-12-24T04:48:03.548Z,7.90
2017-12-24T04:50:30.991Z,7.90
2017-12-24T04:52:58.831Z,7.80
2017-12-24T04:55:26.262Z,7.80
2017-12-24T04:57:53.706Z,7.80
2017-12-24T05:00:21.148Z,7.90
2017-12-24T05:02:48.583Z,7.90
2017-12-24T05:05:16.436Z,7.90
2017-12-24T05:07:43.870Z,7.90
2017-12-24T05:10:11.322Z,7.90
2017-12-24T05:12:38.775Z,7.90
2017-12-24T05:15:06.225Z,7.90
2017-12-24T05:17:33.658Z,7.90
2017-12-24T05:20:01.115Z,7.90
2017-12-24T05:22:28.560Z,7.90
2017-12-24T05:24:56.390Z,7.90
2017-12-24T05:27:23.830Z,7.90
2017-12-24T05:29:51.283Z,7.90
2017-12-24T05:32:18.722Z,7.90
2017-12-24T05:34:46.170Z,7.90
2017-12-24T05:37:14.506Z,8.00
2017-12-24T05:39:41.946Z,8.00
2017-12-24T05:42:09.418Z,8.10
2017-12-24T05:44:36.866Z,8.00
2017-12-24T05:47:04.294Z,8.00
2017-12-24T05:49:31.722Z,7.90
2017-12-24T05:51:59.167Z,7.90
2017-12-24T05:54:27.555Z,7.90
2017-12-24T05:56:55.007Z,7.90
2017-12-24T05:59:22.448Z,7.90
2017-12-24T06:01:50.290Z,7.90
2017-12-24T06:04:17.727Z,7.90
2017-12-24T06:06:45.166Z,7.90
2017-12-24T06:09:12.606Z,8.00
2017-12-24T06:11:40.034Z,8.00
2017-12-24T06:14:07.870Z,8.00
2017-12-24T06:16:35.307Z,8.00
2017-12-24T06:19:02.758Z,8.00
2017-12-24T06:21:30.193Z,8.00
2017-12-24T06:23:57.646Z,7.90
2017-12-24T06:26:25.495Z,7.90
2017-12-24T06:28:53.345Z,7.90
2017-12-24T06:31:20.773Z,7.90
2017-12-24T06:33:48.225Z,7.90
2017-12-24T06:36:15.669Z,8.00
2017-12-24T06:38:43.105Z,7.90
2017-12-24T06:41:10.554Z,7.90
2017-12-24T06:43:38.390Z,7.90
2017-12-24T06:46:06.725Z,7.90
2017-12-24T06:48:34.155Z,7.90
2017-12-24T06:51:02.009Z,7.90
2017-12-24T06:53:29.856Z,7.90
2017-12-24T06:55:57.291Z,7.90
2017-12-24T06:58:24.759Z,7.90
2017-12-24T07:00:52.195Z,7.90
2017-12-24T07:03:19.632Z,7.90
2017-12-24T07:05:47.098Z,8.00
2017-12-24T07:08:14.534Z,8.00
2017-12-24T07:10:41.986Z,8.00
2017-12-24T07:13:09.814Z,7.90
2017-12-24T07:15:37.251Z,7.90
2017-12-24T07:18:04.695Z,7.90
2017-12-24T07:20:32.159Z,7.90
2017-12-24T07:22:59.604Z,7.90
2017-12-24T07:25:27.058Z,8.00
2017-12-24T07:27:54.502Z,7.90
2017-12-24T07:30:21.946Z,8.00
2017-12-24T07:32:49.781Z,8.00
2017-12-24T07:35:17.234Z,8.00
2017-12-24T07:37:46.631Z,8.00
2017-12-24T07:40:14.078Z,7.90
2017-12-24T07:42:41.527Z,8.00
2017-12-24T07:45:08.950Z,8.00
2017-12-24T07:47:36.440Z,8.10
2017-12-24T07:50:03.916Z,8.10
2017-12-24T07:52:31.351Z,8.00
2017-12-24T07:54:59.702Z,8.00
2017-12-24T07:57:27.162Z,8.00
2017-12-24T07:59:54.711Z,8.00
2017-12-24T08:02:22.661Z,8.00
2017-12-24T08:04:50.099Z,8.00
2017-12-24T08:07:17.577Z,8.00
2017-12-24T08:09:45.970Z,8.00
2017-12-24T08:12:15.692Z,8.10
2017-12-24T08:14:43.119Z,8.10
2017-12-24T08:17:10.555Z,8.10
2017-12-24T08:19:38.022Z,8.00
2017-12-24T08:22:05.592Z,8.00
2017-12-24T08:24:33.056Z,8.00
2017-12-24T08:27:01.354Z,8.00
2017-12-24T08:29:28.798Z,8.00
2017-12-24T08:31:56.675Z,8.00
2017-12-24T08:34:24.520Z,8.00
2017-12-24T08:36:57.234Z,8.00
2017-12-24T08:39:27.746Z,8.10
2017-12-24T08:41:55.600Z,8.10
2017-12-24T08:44:23.432Z,8.10
2017-12-24T08:46:50.876Z,8.10
2017-12-24T08:49:19.191Z,8.10
2017-12-24T08:51:46.639Z,8.10
2017-12-24T08:54:14.951Z,8.10
2017-12-24T08:56:42.399Z,8.10
2017-12-24T08:59:10.239Z,8.20
2017-12-24T09:01:37.684Z,8.20
2017-12-24T09:04:06.011Z,8.20
2017-12-24T09:06:33.451Z,8.20
2017-12-24T09:09:01.342Z,8.20
2017-12-24T09:11:28.778Z,8.20
2017-12-24T09:13:56.607Z,8.20
2017-12-24T09:16:24.059Z,8.20
2017-12-24T09:18:51.498Z,8.20
2017-12-24T09:21:19.058Z,8.20
2017-12-24T09:23:46.489Z,8.20
2017-12-24T09:26:13.932Z,8.30
2017-12-24T09:28:41.768Z,8.30
2017-12-24T09:31:09.221Z,8.30
2017-12-24T09:33:37.337Z,8.30
2017-12-24T09:36:05.168Z,8.40
2017-12-24T09:38:32.608Z,8.40
2017-12-24T09:41:01.088Z,8.40
2017-12-24T09:43:28.523Z,8.40
2017-12-24T09:45:55.978Z,8.40
2017-12-24T09:48:23.411Z,8.40
2017-12-24T09:50:50.858Z,8.40
2017-12-24T09:53:18.707Z,8.40
2017-12-24T09:55:46.168Z,8.40
2017-12-24T09:58:13.640Z,8.40
2017-12-24T10:00:41.466Z,8.40
2017-12-24T10:03:08.915Z,8.40
2017-12-24T10:05:36.354Z,8.40
2017-12-24T10:08:05.756Z,8.40
2017-12-24T10:10:33.207Z,8.40
2017-12-24T10:13:00.658Z,8.50
2017-12-24T10:15:29.044Z,8.50
2017-12-24T10:17:56.500Z,8.50
2017-12-24T10:20:23.927Z,8.50
2017-12-24T10:22:51.771Z,8.50
2017-12-24T10:25:19.226Z,8.50
2017-12-24T10:27:47.525Z,8.60
2017-12-24T10:30:15.391Z,8.50
2017-12-24T10:32:43.210Z,8.50
2017-12-24T10:35:10.644Z,8.50
2017-12-24T10:37:38.090Z,8.50
2017-12-24T10:40:05.523Z,8.50
2017-12-24T10:42:33.367Z,8.40
2017-12-24T10:45:00.823Z,8.50
2017-12-24T10:47:28.266Z,8.40
2017-12-24T10:49:57.407Z,8.40
2017-12-24T10:52:25.300Z,8.50
2017-12-24T10:54:52.736Z,8.50
2017-12-24T10:57:20.189Z,8.60
2017-12-24T10:59:47.623Z,8.60
2017-12-24T11:02:15.063Z,8.50
2017-12-24T11:04:44.468Z,8.50
2017-12-24T11:07:11.903Z,8.60
2017-12-24T11:09:39.364Z,8.50
2017-12-24T11:12:06.828Z,8.60
2017-12-24T11:14:34.284Z,8.60
2017-12-24T11:17:01.729Z,8.60
2017-12-24T11:19:29.195Z,8.60
2017-12-24T11:21:56.634Z,8.60
2017-12-24T11:24:24.491Z,8.60
2017-12-24T11:26:51.984Z,8.50
2017-12-24T11:29:21.351Z,8.50
2017-12-24T11:31:48.799Z,8.50
2017-12-24T11:34:16.246Z,8.50
2017-12-24T11:36:44.085Z,8.50
2017-12-24T11:39:11.535Z,8.50
2017-12-24T11:41:38.979Z,8.50
2017-12-24T11:44:07.340Z,8.50
2017-12-24T11:46:34.797Z,8.60
2017-12-24T11:49:02.296Z,8.60
2017-12-24T11:51:29.719Z,8.50
2017-12-24T11:53:57.581Z,8.50
2017-12-24T11:56:25.026Z,8.50
2017-12-24T11:58:52.503Z,8.50
2017-12-24T12:01:19.947Z,8.50
2017-12-24T12:03:47.452Z,8.50
2017-12-24T12:06:15.281Z,8.50
2017-12-24T12:08:42.727Z,8.50
2017-12-24T12:11:12.114Z,8.50
2017-12-24T12:13:39.553Z,8.50
2017-12-24T12:16:06.998Z,8.50
2017-12-24T12:18:34.821Z,8.60
2017-12-24T12:21:02.276Z,8.60
2017-12-24T12:23:29.711Z,8.60
2017-12-24T12:25:57.171Z,8.50
2017-12-24T12:28:24.625Z,8.50
2017-12-24T12:30:52.078Z,8.60
2017-12-24T12:33:20.524Z,8.60
2017-12-24T12:35:48.360Z,8.50
2017-12-24T12:38:15.796Z,8.50
2017-12-24T12:40:43.244Z,8.50
2017-12-24T12:43:10.683Z,8.50
2017-12-24T12:45:38.191Z,8.50
2017-12-24T12:48:05.646Z,8.60
2017-12-24T12:50:33.091Z,8.60
2017-12-24T12:53:00.536Z,8.50
2017-12-24T12:55:29.944Z,8.50
2017-12-24T12:57:57.364Z,8.60
2017-12-24T13:00:25.198Z,8.60
2017-12-24T13:02:52.658Z,8.60
2017-12-24T13:05:20.207Z,8.60
2017-12-24T13:07:47.621Z,8.60
2017-12-24T13:10:15.045Z,8.60
2017-12-24T13:12:42.900Z,8.60
2017-12-24T13:15:10.728Z,8.70
2017-12-24T13:17:38.188Z,8.70
2017-12-24T13:20:05.633Z,8.60
2017-12-24T13:22:33.048Z,8.70
2017-12-24T13:25:00.871Z,8.70
2017-12-24T13:27:28.315Z,8.80
2017-12-24T13:29:55.751Z,8.70
2017-12-24T13:32:23.177Z,8.70
2017-12-24T13:34:51.003Z,8.70
2017-12-24T13:37:18.438Z,8.70
2017-12-24T13:39:46.483Z,8.70
2017-12-24T13:42:14.299Z,8.60
2017-12-24T13:44:41.735Z,8.60
2017-12-24T13:47:09.154Z,8.60
2017-12-24T13:49:36.968Z,8.60
2017-12-24T13:52:04.387Z,8.60
2017-12-24T13:54:31.831Z,8.60
2017-12-24T13:57:01.185Z,8.50
2017-12-24T13:59:28.633Z,8.50
2017-12-24T14:01:56.048Z,8.50
2017-12-24T14:04:23.891Z,8.50
2017-12-24T14:06:51.333Z,8.50
2017-12-24T14:09:18.751Z,8.50
2017-12-24T14:11:46.172Z,8.50
2017-12-24T14:14:14.000Z,8.40
2017-12-24T14:16:42.474Z,8.40
2017-12-24T14:19:09.883Z,8.40
2017-12-24T14:21:37.723Z,8.40
2017-12-24T14:24:05.145Z,8.40
2017-12-24T14:26:34.523Z,8.40
2017-12-24T14:29:03.271Z,8.40
2017-12-24T14:31:35.787Z,8.40
2017-12-24T14:34:03.218Z,8.40
2017-12-24T14:36:31.042Z,8.40
2017-12-24T14:38:58.485Z,8.40
2017-12-24T14:41:26.834Z,8.40
2017-12-24T14:43:54.657Z,8.30
2017-12-24T14:46:22.096Z,8.30
2017-12-24T14:48:49.531Z,8.30
2017-12-24T14:51:17.400Z,8.30
2017-12-24T14:53:44.825Z,8.30
2017-12-24T14:56:12.635Z,8.30
2017-12-24T14:58:40.077Z,8.30
2017-12-24T15:01:07.537Z,8.30
2017-12-24T15:03:35.007Z,8.30
2017-12-24T15:06:02.480Z,8.40
2017-12-24T15:08:29.867Z,8.40
2017-12-24T15:10:58.571Z,8.30
2017-12-24T15:13:26.387Z,8.30
2017-12-24T15:15:53.820Z,8.30
2017-12-24T15:18:21.258Z,8.40
2017-12-24T15:20:49.631Z,8.30
2017-12-24T15:23:17.063Z,8.40
2017-12-24T15:25:44.471Z,8.40
2017-12-24T15:28:11.895Z,8.40
2017-12-24T15:30:39.718Z,8.30
2017-12-24T15:33:07.568Z,8.30
2017-12-24T15:35:35.934Z,8.30
2017-12-24T15:38:03.380Z,8.20
2017-12-24T15:40:31.778Z,8.20
2017-12-24T15:42:59.206Z,8.20
2017-12-24T15:45:27.046Z,8.20
2017-12-24T15:47:54.483Z,8.20
2017-12-24T15:50:23.877Z,8.20
2017-12-24T15:52:51.337Z,8.20
2017-12-24T15:55:18.771Z,8.20
2017-12-24T15:57:46.228Z,8.20
2017-12-24T16:00:13.673Z,8.20
2017-12-24T16:02:41.995Z,8.20
2017-12-24T16:05:09.420Z,8.20
2017-12-24T16:07:37.831Z,8.20
2017-12-24T16:10:05.278Z,8.20
2017-12-24T16:12:33.642Z,8.20
2017-12-24T16:15:01.070Z,8.20
2017-12-24T16:17:28.530Z,8.10
2017-12-24T16:19:56.920Z,8.10
2017-12-24T16:22:24.365Z,8.20
2017-12-24T16:24:51.800Z,8.20
2017-12-24T16:27:19.622Z,8.20
2017-12-24T16:29:47.106Z,8.20
2017-12-24T16:32:14.531Z,8.20
2017-12-24T16:34:41.987Z,8.20
2017-12-24T16:37:09.431Z,8.10
2017-12-24T16:39:37.741Z,8.10
2017-12-24T16:42:05.177Z,8.10
2017-12-24T16:44:32.616Z,8.10
2017-12-24T16:47:01.117Z,8.20
2017-12-24T16:49:28.540Z,8.10
2017-12-24T16:51:56.017Z,8.10
2017-12-24T16:54:24.376Z,8.10
2017-12-24T16:56:52.202Z,8.10
2017-12-24T16:59:19.650Z,8.10
2017-12-24T17:01:47.094Z,8.10
2017-12-24T17:04:14.537Z,8.10
2017-12-24T17:06:42.020Z,8.10
2017-12-24T17:09:09.451Z,8.10
2017-12-24T17:11:36.952Z,8.10
2017-12-24T17:14:04.379Z,8.10
2017-12-24T17:16:31.815Z,8.20
2017-12-24T17:18:59.272Z,8.20
2017-12-24T17:21:26.731Z,8.20
2017-12-24T17:23:54.225Z,8.20
2017-12-24T17:26:23.550Z,8.20
2017-12-24T17:28:50.979Z,8.10
2017-12-24T17:31:18.411Z,8.10
2017-12-24T17:33:45.858Z,8.10
2017-12-24T17:36:13.315Z,8.20
2017-12-24T17:38:40.779Z,8.30
2017-12-24T17:41:08.243Z,8.50
2017-12-24T17:43:35.685Z,8.70
2017-12-24T17:46:03.182Z,8.80
2017-12-24T17:48:30.606Z,8.80
2017-12-24T17:50:58.046Z,8.70
2017-12-24T17:53:25.482Z,8.60
2017-12-24T17:55:55.250Z,8.60
2017-12-24T17:58:22.703Z,8.60
2017-12-24T18:00:50.150Z,8.70
2017-12-24T18:03:18.517Z,8.70
2017-12-24T18:05:45.980Z,8.60
2017-12-24T18:08:13.414Z,8.60
2017-12-24T18:10:40.858Z,8.60
2017-12-24T18:13:08.702Z,8.30
2017-12-24T18:15:36.126Z,8.30
2017-12-24T18:18:05.514Z,8.20
2017-12-24T18:20:32.984Z,8.10
2017-12-24T18:23:00.422Z,8.20
2017-12-24T18:25:28.807Z,8.20
2017-12-24T18:27:56.243Z,8.30
2017-12-24T18:30:23.710Z,8.10
2017-12-24T18:32:51.160Z,8.10
2017-12-24T18:35:18.606Z,8.10
2017-12-24T18:37:46.430Z,8.10
2017-12-24T18:40:13.866Z,8.10
2017-12-24T18:42:41.338Z,8.00
2017-12-24T18:45:09.664Z,8.10
2017-12-24T18:47:37.117Z,8.10
2017-12-24T18:50:04.958Z,8.00
2017-12-24T18:52:33.322Z,8.00
2017-12-24T18:57:36.977Z,8.00
2017-12-24T19:00:05.724Z,8.00
2017-12-24T19:02:33.783Z,8.00
2017-12-24T19:05:01.217Z,8.00
2017-12-24T19:07:28.682Z,8.00
2017-12-24T19:09:56.164Z,8.10
2017-12-24T19:12:23.603Z,8.00
2017-12-24T19:14:51.059Z,8.00
2017-12-24T19:17:18.523Z,8.00
2017-12-24T19:19:46.372Z,8.00
2017-12-24T19:22:13.814Z,8.00
2017-12-24T19:24:41.270Z,8.10
2017-12-24T19:27:08.698Z,8.10
2017-12-24T19:29:36.142Z,8.10
2017-12-24T19:32:03.988Z,8.10
2017-12-24T19:34:31.426Z,8.10
2017-12-24T19:36:58.900Z,8.10
2017-12-24T19:39:26.354Z,8.10
2017-12-24T19:41:53.817Z,8.10
2017-12-24T19:44:21.277Z,8.10
2017-12-24T19:46:49.187Z,8.10
2017-12-24T19:49:18.003Z,8.10
2017-12-24T19:51:46.597Z,8.10
2017-12-24T19:54:14.041Z,8.20
2017-12-24T19:56:41.483Z,8.20
2017-12-24T19:59:09.303Z,8.20
2017-12-24T20:01:36.758Z,8.20
2017-12-24T20:04:04.195Z,8.10
2017-12-24T20:06:31.641Z,8.10
2017-12-24T20:09:01.051Z,8.10
2017-12-24T20:11:28.505Z,8.00
2017-12-24T20:13:55.960Z,8.00
2017-12-24T20:16:23.419Z,8.00
2017-12-24T20:18:51.826Z,8.00
2017-12-24T20:21:19.423Z,8.00
2017-12-24T20:23:47.226Z,8.10
2017-12-24T20:26:14.837Z,8.10
2017-12-24T20:28:42.602Z,8.00
2017-12-24T20:31:10.672Z,8.00
2017-12-24T20:33:38.565Z,8.00
2017-12-24T20:36:06.855Z,8.10
2017-12-24T20:38:35.026Z,8.00
2017-12-24T20:41:02.717Z,8.00
2017-12-24T20:43:30.965Z,8.00
2017-12-24T20:45:59.203Z,8.00
2017-12-24T20:48:26.767Z,8.00
2017-12-24T20:50:54.831Z,8.00
2017-12-24T20:53:22.529Z,8.00
2017-12-24T20:55:50.468Z,8.00
2017-12-24T20:58:18.032Z,8.00
2017-12-24T21:00:45.584Z,8.00
2017-12-24T21:03:14.263Z,8.00
2017-12-24T21:05:42.118Z,8.00
2017-12-24T21:08:09.898Z,8.00
2017-12-24T21:10:37.614Z,8.10
2017-12-24T21:13:05.331Z,8.10
2017-12-24T21:15:33.093Z,8.10
2017-12-24T21:18:00.713Z,8.10
2017-12-24T21:20:28.443Z,8.00
2017-12-24T21:22:56.345Z,8.00
2017-12-24T21:25:23.929Z,8.10
2017-12-24T21:27:51.389Z,8.00
2017-12-24T21:30:18.842Z,8.00
2017-12-24T21:32:46.274Z,8.00
2017-12-24T21:35:14.649Z,7.90
2017-12-24T21:37:42.101Z,7.90
2017-12-24T21:40:10.474Z,7.90
2017-12-24T21:42:37.910Z,7.90
2017-12-24T21:45:05.386Z,7.90
2017-12-24T21:47:32.887Z,7.90
2017-12-24T21:50:00.323Z,7.90
2017-12-24T21:52:27.770Z,7.90
2017-12-24T21:54:55.215Z,7.90
2017-12-24T21:57:23.089Z,7.90
2017-12-24T21:59:50.562Z,7.90
2017-12-24T22:02:17.995Z,7.90
2017-12-24T22:04:45.438Z,7.90
2017-12-24T22:07:12.901Z,7.90
2017-12-24T22:09:40.726Z,7.90
2017-12-24T22:12:08.165Z,7.90
2017-12-24T22:14:35.605Z,7.90
2017-12-24T22:17:03.089Z,7.90
2017-12-24T22:19:31.395Z,7.90
2017-12-24T22:21:59.842Z,7.80
2017-12-24T22:24:27.274Z,7.90
2017-12-24T22:26:54.710Z,7.80
2017-12-24T22:29:24.103Z,7.80
2017-12-24T22:31:51.562Z,7.80
2017-12-24T22:34:18.993Z,7.80
2017-12-24T22:36:46.423Z,7.90
2017-12-24T22:39:13.869Z,7.90
2017-12-24T22:41:41.317Z,7.90
2017-12-24T22:44:10.674Z,7.90
2017-12-24T22:46:38.503Z,7.80
2017-12-24T22:49:05.949Z,7.80
2017-12-24T22:51:33.386Z,7.80
2017-12-24T22:54:00.834Z,7.80
2017-12-24T22:56:29.150Z,7.80
2017-12-24T22:58:56.615Z,7.70
2017-12-24T23:01:24.062Z,7.70
2017-12-24T23:03:52.358Z,7.70
2017-12-24T23:06:21.735Z,7.80
2017-12-24T23:08:49.189Z,7.70
2017-12-24T23:11:18.167Z,7.80
2017-12-24T23:13:45.615Z,7.80
2017-12-24T23:16:13.046Z,7.70
2017-12-24T23:18:41.763Z,7.70
2017-12-24T23:21:09.221Z,7.70
2017-12-24T23:23:36.657Z,7.80
2017-12-24T23:26:04.115Z,7.70
2017-12-24T23:28:31.554Z,7.70
2017-12-24T23:30:58.979Z,7.70
2017-12-24T23:33:27.394Z,7.60
2017-12-24T23:35:55.232Z,7.60
2017-12-24T23:38:22.674Z,7.60
2017-12-24T23:40:50.152Z,7.60
2017-12-24T23:43:17.618Z,7.60
2017-12-24T23:45:45.062Z,7.60
2017-12-24T23:48:13.433Z,7.70
2017-12-24T23:50:41.797Z,7.70
2017-12-24T23:53:09.239Z,7.60
2017-12-24T23:55:36.693Z,7.60
2017-12-24T23:58:05.075Z,7.70
